createdAt,value
2017-12-27T00:00:50.615Z,100043.13
2017-12-27T00:03:24.831Z,100050.54
2017-12-27T00:05:59.044Z,100047.48
2017-12-27T00:08:33.062Z,100046.10
2017-12-27T00:11:07.476Z,100043.17
2017-12-27T00:13:41.305Z,100043.96
2017-12-27T00:16:15.501Z,100050.07
2017-12-27T00:18:49.673Z,100041.72
2017-12-27T00:21:24.030Z,100045.66
2017-12-27T00:23:58.245Z,100030.66
2017-12-27T00:26:32.700Z,100034.98
2017-12-27T00:29:07.597Z,100031.89
2017-12-27T00:31:36.578Z,100034.26
2017-12-27T00:34:05.228Z,100035.55
2017-12-27T00:36:34.685Z,100032.50
2017-12-27T00:39:03.610Z,100027.75
2017-12-27T00:41:33.031Z,100027.73
2017-12-27T00:44:02.476Z,100014.17
2017-12-27T00:46:31.360Z,100021.58
2017-12-27T00:49:00.057Z,100013.09
2017-12-27T00:51:28.643Z,100010.09
2017-12-27T00:53:57.329Z,100009.08
2017-12-27T00:56:26.009Z,100004.13
2017-12-27T00:58:54.651Z,100013.04
2017-12-27T01:01:24.099Z,100022.65
2017-12-27T01:03:52.785Z,100017.77
2017-12-27T01:06:21.471Z,100017.25
2017-12-27T01:08:50.469Z,100017.14
2017-12-27T01:11:19.143Z,100021.13
2017-12-27T01:13:47.834Z,100021.22
2017-12-27T01:16:16.579Z,100016.98
2017-12-27T01:18:45.222Z,100024.95
2017-12-27T01:21:13.892Z,100020.45
2017-12-27T01:23:43.030Z,100021.70
2017-12-27T01:26:12.493Z,100022.58
2017-12-27T01:28:41.277Z,100024.73
2017-12-27T01:31:10.187Z,100023.55
2017-12-27T01:33:38.803Z,100021.22
2017-12-27T01:36:08.256Z,100012.84
2017-12-27T01:38:36.984Z,100008.56
2017-12-27T01:41:06.451Z,100014.22
2017-12-27T01:43:35.124Z,100004.04
2017-12-27T01:46:03.866Z,100011.09
2017-12-27T01:48:33.629Z,100003.06
2017-12-27T01:51:02.215Z,99997.58
2017-12-27T01:53:31.208Z,99997.04
2017-12-27T01:55:59.837Z,99992.67
2017-12-27T01:58:29.291Z,99983.95
2017-12-27T02:00:58.022Z,99981.62
2017-12-27T02:03:27.485Z,99984.86
2017-12-27T02:05:56.132Z,99995.45
2017-12-27T02:08:24.896Z,99999.11
2017-12-27T02:10:53.589Z,100001.20
2017-12-27T02:13:22.956Z,99996.17
2017-12-27T02:15:51.836Z,100007.23
2017-12-27T02:18:20.472Z,100008.34
2017-12-27T02:20:49.931Z,100002.09
2017-12-27T02:23:18.782Z,100010.18
2017-12-27T02:25:47.449Z,100004.65
2017-12-27T02:28:16.911Z,99994.81
2017-12-27T02:30:46.009Z,100000.83
2017-12-27T02:33:14.787Z,99996.89
2017-12-27T02:35:43.590Z,100001.05
2017-12-27T02:38:12.367Z,99990.59
2017-12-27T02:40:40.947Z,99989.56
2017-12-27T02:43:09.569Z,99996.55
2017-12-27T02:45:38.517Z,99995.69
2017-12-27T02:48:07.209Z,99991.42
2017-12-27T02:50:35.851Z,100001.89
2017-12-27T02:53:04.868Z,99999.09
2017-12-27T02:55:33.573Z,99997.83
2017-12-27T02:58:02.229Z,99994.16
2017-12-27T03:00:31.196Z,99990.41
2017-12-27T03:03:00.662Z,99985.23
2017-12-27T03:05:29.387Z,99986.61
2017-12-27T03:07:58.844Z,99989.37
2017-12-27T03:10:27.531Z,99984.14
2017-12-27T03:12:56.160Z,99976.58
2017-12-27T03:15:25.726Z,99971.23
2017-12-27T03:17:54.370Z,99957.17
2017-12-27T03:20:23.097Z,99964.34
2017-12-27T03:22:52.156Z,99961.66
2017-12-27T03:25:20.876Z,99965.44
2017-12-27T03:27:49.516Z,99963.58
2017-12-27T03:30:19.234Z,99959.78
2017-12-27T03:32:47.963Z,99964.42
2017-12-27T03:35:16.540Z,99954.87
2017-12-27T03:37:45.686Z,99955.58
2017-12-27T03:40:15.142Z,99967.34
2017-12-27T03:42:43.772Z,99968.34
2017-12-27T03:45:13.541Z,99961.40
2017-12-27T03:47:42.178Z,99959.98
2017-12-27T03:50:11.519Z,99967.42
2017-12-27T03:52:40.413Z,99969.28
2017-12-27T03:55:09.060Z,99966.49
2017-12-27T03:57:37.784Z,99974.09
2017-12-27T04:00:06.725Z,99979.66
2017-12-27T04:02:36.078Z,99980.19
2017-12-27T04:05:04.762Z,99973.21
2017-12-27T04:07:33.448Z,99964.56
2017-12-27T04:10:02.133Z,99959.23
2017-12-27T04:12:30.783Z,99947.97
2017-12-27T04:14:59.505Z,99954.36
2017-12-27T04:17:28.144Z,99959.15
2017-12-27T04:19:57.600Z,99951.88
2017-12-27T04:22:26.389Z,99950.65
2017-12-27T04:24:55.047Z,99950.05
2017-12-27T04:27:25.292Z,99954.08
2017-12-27T04:29:54.231Z,99951.70
2017-12-27T04:32:23.690Z,99959.02
2017-12-27T04:34:52.317Z,99958.25
2017-12-27T04:37:21.879Z,99961.03
2017-12-27T04:39:50.565Z,99962.70
2017-12-27T04:42:19.251Z,99973.63
2017-12-27T04:44:47.936Z,99971.69
2017-12-27T04:47:16.630Z,99966.80
2017-12-27T04:49:45.248Z,99979.08
2017-12-27T04:52:14.817Z,99976.54
2017-12-27T04:54:43.402Z,99979.64
2017-12-27T04:57:11.982Z,99985.03
2017-12-27T04:59:40.765Z,99983.22
2017-12-27T05:02:09.411Z,99979.69
2017-12-27T05:04:38.141Z,99980.58
2017-12-27T05:07:07.193Z,99975.03
2017-12-27T05:09:36.639Z,99969.86
2017-12-27T05:12:05.281Z,99965.41
2017-12-27T05:14:34.219Z,99957.75
2017-12-27T05:17:02.787Z,99957.92
2017-12-27T05:19:31.479Z,99952.29
2017-12-27T05:22:00.330Z,99947.08
2017-12-27T05:24:28.960Z,99947.61
2017-12-27T05:26:57.609Z,99954.66
2017-12-27T05:29:26.530Z,99957.06
2017-12-27T05:31:55.524Z,99960.78
2017-12-27T05:34:24.166Z,99971.08
2017-12-27T05:36:52.894Z,99965.44
2017-12-27T05:39:21.526Z,99953.34
2017-12-27T05:41:50.989Z,99942.12
2017-12-27T05:44:19.711Z,99944.94
2017-12-27T05:46:49.074Z,99947.16
2017-12-27T05:49:17.641Z,99949.04
2017-12-27T05:51:46.348Z,99952.19
2017-12-27T05:54:14.923Z,99950.05
2017-12-27T05:56:43.574Z,99944.09
2017-12-27T05:59:12.570Z,99943.14
2017-12-27T06:01:41.288Z,99950.39
2017-12-27T06:04:09.927Z,99948.77
2017-12-27T06:06:39.483Z,99950.38
2017-12-27T06:09:08.168Z,99951.84
2017-12-27T06:11:36.805Z,99964.60
2017-12-27T06:14:06.523Z,99969.63
2017-12-27T06:16:35.246Z,99964.36
2017-12-27T06:19:03.883Z,99963.59
2017-12-27T06:21:33.341Z,99954.25
2017-12-27T06:24:02.119Z,99958.62
2017-12-27T06:26:30.812Z,99960.40
2017-12-27T06:29:00.419Z,99954.89
2017-12-27T06:31:29.104Z,99953.36
2017-12-27T06:33:57.790Z,99951.54
2017-12-27T06:36:26.730Z,99959.78
2017-12-27T06:38:56.183Z,99958.73
2017-12-27T06:41:24.817Z,99961.82
2017-12-27T06:43:54.475Z,99961.33
2017-12-27T06:46:23.019Z,99955.78
2017-12-27T06:48:52.445Z,99967.62
2017-12-27T06:51:21.256Z,99961.27
2017-12-27T06:53:49.946Z,99966.22
2017-12-27T06:56:18.628Z,99960.09
2017-12-27T06:58:47.721Z,99962.36
2017-12-27T07:01:16.301Z,99960.99
2017-12-27T07:03:45.054Z,99958.91
2017-12-27T07:06:13.877Z,99960.78
2017-12-27T07:08:42.563Z,99959.75
2017-12-27T07:11:11.230Z,99960.73
2017-12-27T07:13:40.220Z,99966.81
2017-12-27T07:16:08.772Z,99965.43
2017-12-27T07:18:38.227Z,99966.70
2017-12-27T07:21:06.911Z,99963.37
2017-12-27T07:23:35.598Z,99956.39
2017-12-27T07:26:04.260Z,99950.77
2017-12-27T07:28:33.075Z,99955.76
2017-12-27T07:31:01.819Z,99954.11
2017-12-27T07:33:31.263Z,99959.09
2017-12-27T07:36:00.301Z,99959.03
2017-12-27T07:38:29.666Z,99961.51
2017-12-27T07:40:58.347Z,99948.14
2017-12-27T07:43:27.137Z,99943.25
2017-12-27T07:45:55.775Z,99937.12
2017-12-27T07:48:25.315Z,99943.23
2017-12-27T07:50:54.062Z,99940.53
2017-12-27T07:53:23.514Z,99943.81
2017-12-27T07:55:52.199Z,99941.63
2017-12-27T07:58:20.985Z,99951.52
2017-12-27T08:00:49.681Z,99945.88
2017-12-27T08:03:18.466Z,99945.50
2017-12-27T08:05:47.153Z,99951.59
2017-12-27T08:08:15.838Z,99961.61
2017-12-27T08:10:44.433Z,99958.16
2017-12-27T08:13:13.366Z,99951.44
2017-12-27T08:15:42.817Z,99958.42
2017-12-27T08:18:11.455Z,99964.16
2017-12-27T08:20:40.995Z,99969.20
2017-12-27T08:23:09.697Z,99968.78
2017-12-27T08:25:38.330Z,99964.36
2017-12-27T08:28:07.880Z,99962.13
2017-12-27T08:30:36.519Z,99954.85
2017-12-27T08:33:05.252Z,99952.94
2017-12-27T08:35:34.326Z,99952.04
2017-12-27T08:38:02.881Z,99950.77
2017-12-27T08:40:32.341Z,99943.50
2017-12-27T08:43:01.082Z,99935.69
2017-12-27T08:45:29.812Z,99928.53
2017-12-27T08:47:58.497Z,99931.73
2017-12-27T08:50:27.187Z,99923.28
2017-12-27T08:52:56.628Z,99925.11
2017-12-27T08:55:26.091Z,99930.64
2017-12-27T08:57:54.976Z,99926.02
2017-12-27T09:00:23.676Z,99930.64
2017-12-27T09:02:52.245Z,99931.32
2017-12-27T09:05:21.141Z,99926.78
2017-12-27T09:07:49.784Z,99922.52
2017-12-27T09:10:18.513Z,99909.61
2017-12-27T09:12:47.444Z,99911.66
2017-12-27T09:15:16.904Z,99906.95
2017-12-27T09:17:45.700Z,99902.87
2017-12-27T09:20:14.583Z,99897.81
2017-12-27T09:22:43.215Z,99894.69
2017-12-27T09:25:12.678Z,99888.44
2017-12-27T09:27:41.401Z,99888.53
2017-12-27T09:30:10.762Z,99898.45
2017-12-27T09:32:39.386Z,99885.08
2017-12-27T09:35:09.131Z,99890.44
2017-12-27T09:37:37.841Z,99882.14
2017-12-27T09:40:06.490Z,99878.09
2017-12-27T09:42:35.213Z,99874.43
2017-12-27T09:45:03.850Z,99874.41
2017-12-27T09:47:33.308Z,99871.67
2017-12-27T09:50:02.093Z,99873.97
2017-12-27T09:52:30.728Z,99865.66
2017-12-27T09:55:00.066Z,99858.50
2017-12-27T09:57:29.138Z,99845.53
2017-12-27T09:59:57.857Z,99844.50
2017-12-27T10:02:26.499Z,99831.89
2017-12-27T10:04:55.289Z,99831.23
2017-12-27T10:07:24.737Z,99828.53
2017-12-27T10:09:53.423Z,99814.10
2017-12-27T10:12:22.112Z,99814.53
2017-12-27T10:14:50.794Z,99817.75
2017-12-27T10:17:19.430Z,99822.51
2017-12-27T10:19:48.988Z,99815.41
2017-12-27T10:22:17.674Z,99798.18
2017-12-27T10:24:46.360Z,99796.53
2017-12-27T10:27:15.202Z,99789.50
2017-12-27T10:29:43.930Z,99794.68
2017-12-27T10:32:12.588Z,99788.81
2017-12-27T10:34:41.351Z,99794.38
2017-12-27T10:37:10.878Z,99798.53
2017-12-27T10:39:39.594Z,99801.70
2017-12-27T10:42:08.389Z,99787.06
2017-12-27T10:44:37.022Z,99781.50
2017-12-27T10:47:06.475Z,99775.05
2017-12-27T10:49:36.136Z,99783.09
2017-12-27T10:52:05.445Z,99766.66
2017-12-27T10:54:34.167Z,99781.44
2017-12-27T10:57:02.961Z,99777.90
2017-12-27T10:59:32.460Z,99778.27
2017-12-27T11:02:01.125Z,99778.67
2017-12-27T11:04:29.889Z,99770.17
2017-12-27T11:06:59.230Z,99762.80
2017-12-27T11:09:27.927Z,99752.07
2017-12-27T11:11:56.771Z,99759.03
2017-12-27T11:14:25.334Z,99756.85
2017-12-27T11:16:54.033Z,99746.16
2017-12-27T11:19:22.928Z,99742.37
2017-12-27T11:21:51.567Z,99730.62
2017-12-27T11:24:21.013Z,99733.98
2017-12-27T11:26:49.812Z,99730.53
2017-12-27T11:29:18.384Z,99730.95
2017-12-27T11:31:47.069Z,99719.07
2017-12-27T11:34:16.063Z,99722.03
2017-12-27T11:36:44.699Z,99710.69
2017-12-27T11:39:14.157Z,99697.48
2017-12-27T11:41:42.943Z,99685.67
2017-12-27T11:44:11.628Z,99689.72
2017-12-27T11:46:40.295Z,99687.80
2017-12-27T11:49:09.209Z,99687.84
2017-12-27T11:51:37.851Z,99688.05
2017-12-27T11:54:07.294Z,99688.05
2017-12-27T11:56:36.177Z,99680.64
2017-12-27T11:59:04.873Z,99680.75
2017-12-27T12:01:33.559Z,99684.28
2017-12-27T12:04:02.237Z,99678.42
2017-12-27T12:06:30.930Z,99675.75
2017-12-27T12:08:59.551Z,99670.14
2017-12-27T12:11:29.014Z,99662.54
2017-12-27T12:13:57.701Z,99667.66
2017-12-27T12:16:26.243Z,99662.87
2017-12-27T12:18:55.786Z,99662.37
2017-12-27T12:21:24.471Z,99659.91
2017-12-27T12:23:53.156Z,99660.92
2017-12-27T12:26:22.129Z,99646.78
2017-12-27T12:28:50.836Z,99651.97
2017-12-27T12:31:19.464Z,99654.00
2017-12-27T12:33:49.031Z,99637.99
2017-12-27T12:36:17.720Z,99634.41
2017-12-27T12:38:46.293Z,99634.61
2017-12-27T12:41:15.361Z,99634.24
2017-12-27T12:43:44.081Z,99636.53
2017-12-27T12:46:12.746Z,99634.41
2017-12-27T12:48:41.714Z,99635.42
2017-12-27T12:51:11.159Z,99630.94
2017-12-27T12:53:39.825Z,99632.27
2017-12-27T12:56:08.818Z,99620.80
2017-12-27T12:58:37.523Z,99620.03
2017-12-27T13:01:06.154Z,99607.85
2017-12-27T13:03:35.722Z,99604.27
2017-12-27T13:06:04.404Z,99608.30
2017-12-27T13:08:33.188Z,99597.16
2017-12-27T13:11:02.149Z,99603.51
2017-12-27T13:13:30.872Z,99603.00
2017-12-27T13:15:59.553Z,99589.95
2017-12-27T13:18:28.348Z,99603.20
2017-12-27T13:20:57.119Z,99605.41
2017-12-27T13:23:25.819Z,99598.16
2017-12-27T13:25:54.731Z,99600.16
2017-12-27T13:28:23.304Z,99589.57
2017-12-27T13:30:51.941Z,99576.63
2017-12-27T13:33:20.933Z,99574.36
2017-12-27T13:35:49.653Z,99577.23
2017-12-27T13:38:19.163Z,99575.88
2017-12-27T13:40:48.112Z,99575.83
2017-12-27T13:43:16.879Z,99572.00
2017-12-27T13:45:45.626Z,99578.03
2017-12-27T13:48:14.986Z,99568.51
2017-12-27T13:50:44.436Z,99568.63
2017-12-27T13:53:13.526Z,99575.17
2017-12-27T13:55:42.212Z,99586.06
2017-12-27T13:58:10.898Z,99591.34
2017-12-27T14:00:39.529Z,99590.95
2017-12-27T14:03:09.093Z,99587.81
2017-12-27T14:05:37.779Z,99589.79
2017-12-27T14:08:06.464Z,99589.97
2017-12-27T14:10:35.148Z,99588.38
2017-12-27T14:13:03.836Z,99586.42
2017-12-27T14:15:32.459Z,99582.83
2017-12-27T14:18:02.024Z,99567.88
2017-12-27T14:20:31.293Z,99566.11
2017-12-27T14:23:00.024Z,99574.68
2017-12-27T14:25:28.900Z,99573.87
2017-12-27T14:27:57.549Z,99571.75
2017-12-27T14:30:26.271Z,99566.99
2017-12-27T14:32:55.006Z,99572.52
2017-12-27T14:35:24.320Z,99571.34
2017-12-27T14:37:53.766Z,99578.81
2017-12-27T14:40:23.437Z,99573.70
2017-12-27T14:42:52.157Z,99569.27
2017-12-27T14:45:20.823Z,99561.94
2017-12-27T14:47:49.791Z,99566.45
2017-12-27T14:50:18.522Z,99547.31
2017-12-27T14:52:47.152Z,99549.52
2017-12-27T14:55:16.768Z,99545.88
2017-12-27T14:57:45.462Z,99553.31
2017-12-27T15:00:14.096Z,99545.22
2017-12-27T15:02:44.747Z,99537.86
2017-12-27T15:05:13.462Z,99546.22
2017-12-27T15:07:42.108Z,99541.94
2017-12-27T15:10:10.872Z,99551.33
2017-12-27T15:12:39.628Z,99560.13
2017-12-27T15:15:08.922Z,99554.19
2017-12-27T15:17:37.812Z,99545.84
2017-12-27T15:20:06.447Z,99548.47
2017-12-27T15:22:35.907Z,99543.28
2017-12-27T15:25:04.959Z,99547.17
2017-12-27T15:27:33.686Z,99547.38
2017-12-27T15:30:02.371Z,99542.54
2017-12-27T15:32:31.057Z,99537.13
2017-12-27T15:34:59.803Z,99538.36
2017-12-27T15:37:28.527Z,99539.56
2017-12-27T15:39:57.212Z,99530.39
2017-12-27T15:42:25.898Z,99536.47
2017-12-27T15:44:54.550Z,99524.00
2017-12-27T15:47:23.364Z,99527.84
2017-12-27T15:49:52.066Z,99532.40
2017-12-27T15:52:20.699Z,99537.62
2017-12-27T15:54:50.248Z,99536.24
2017-12-27T15:57:18.935Z,99534.63
2017-12-27T15:59:47.730Z,99525.50
2017-12-27T16:02:16.798Z,99529.03
2017-12-27T16:04:45.509Z,99542.53
2017-12-27T16:07:14.293Z,99543.67
2017-12-27T16:09:43.495Z,99536.06
2017-12-27T16:12:12.120Z,99531.09
2017-12-27T16:14:41.579Z,99530.01
2017-12-27T16:17:10.264Z,99518.31
2017-12-27T16:19:38.951Z,99520.37
2017-12-27T16:22:07.537Z,99521.66
2017-12-27T16:24:36.230Z,99518.44
2017-12-27T16:27:04.909Z,99521.91
2017-12-27T16:29:33.597Z,99515.08
2017-12-27T16:32:02.491Z,99519.78
2017-12-27T16:34:31.176Z,99528.76
2017-12-27T16:36:59.821Z,99519.92
2017-12-27T16:39:28.547Z,99514.83
2017-12-27T16:41:57.183Z,99517.38
2017-12-27T16:44:26.635Z,99518.75
2017-12-27T16:46:55.667Z,99519.28
2017-12-27T16:49:25.133Z,99529.00
2017-12-27T16:51:54.577Z,99536.80
2017-12-27T16:54:24.142Z,99527.20
2017-12-27T16:56:55.899Z,99509.98
2017-12-27T16:59:24.681Z,99529.34
2017-12-27T17:01:53.387Z,99519.27
2017-12-27T17:04:22.052Z,99515.86
2017-12-27T17:06:51.009Z,99517.34
2017-12-27T17:09:19.737Z,99521.16
2017-12-27T17:11:48.420Z,99527.64
2017-12-27T17:14:17.036Z,99524.89
2017-12-27T17:16:46.514Z,99530.44
2017-12-27T17:19:15.200Z,99525.31
2017-12-27T17:21:43.876Z,99519.25
2017-12-27T17:24:12.572Z,99529.91
2017-12-27T17:26:41.257Z,99511.81
2017-12-27T17:29:10.139Z,99516.13
2017-12-27T17:31:38.884Z,99517.52
2017-12-27T17:34:08.278Z,99518.23
2017-12-27T17:36:37.844Z,99509.48
2017-12-27T17:39:06.408Z,99521.11
2017-12-27T17:41:35.009Z,99523.98
2017-12-27T17:44:03.846Z,99521.66
2017-12-27T17:46:33.354Z,99513.19
2017-12-27T17:49:02.810Z,99523.41
2017-12-27T17:51:31.725Z,99520.99
2017-12-27T17:54:00.489Z,99505.77
2017-12-27T17:56:29.110Z,99493.97
2017-12-27T17:58:58.672Z,99507.98
2017-12-27T18:01:27.357Z,99494.45
2017-12-27T18:03:56.252Z,99501.62
2017-12-27T18:06:25.036Z,99501.60
2017-12-27T18:08:53.723Z,99515.67
2017-12-27T18:11:22.369Z,99503.89
2017-12-27T18:13:51.262Z,99504.58
2017-12-27T18:16:19.988Z,99503.63
2017-12-27T18:18:48.566Z,99497.77
2017-12-27T18:21:17.366Z,99496.88
2017-12-27T18:23:45.928Z,99477.05
2017-12-27T18:26:14.632Z,99480.64
2017-12-27T18:28:43.794Z,99489.11
2017-12-27T18:31:12.461Z,99480.95
2017-12-27T18:33:42.117Z,99486.09
2017-12-27T18:36:11.016Z,99476.00
2017-12-27T18:38:39.795Z,99479.55
2017-12-27T18:41:08.433Z,99486.83
2017-12-27T18:43:37.925Z,99485.97
2017-12-27T18:46:07.389Z,99494.48
2017-12-27T18:48:36.043Z,99487.03
2017-12-27T18:51:04.800Z,99476.55
2017-12-27T18:53:33.556Z,99472.80
2017-12-27T18:56:03.053Z,99463.59
2017-12-27T18:58:31.740Z,99462.98
2017-12-27T19:01:00.521Z,99467.16
2017-12-27T19:03:29.112Z,99465.58
2017-12-27T19:05:59.028Z,99461.84
2017-12-27T19:08:27.677Z,99462.91
2017-12-27T19:10:56.397Z,99457.34
2017-12-27T19:13:25.599Z,99458.95
2017-12-27T19:15:54.290Z,99466.19
2017-12-27T19:18:22.970Z,99470.19
2017-12-27T19:20:51.655Z,99456.55
2017-12-27T19:23:20.440Z,99444.70
2017-12-27T19:25:49.126Z,99446.87
2017-12-27T19:28:17.816Z,99449.90
2017-12-27T19:30:47.885Z,99441.17
2017-12-27T19:33:17.335Z,99447.38
2017-12-27T19:35:46.327Z,99446.79
2017-12-27T19:38:14.965Z,99448.19
2017-12-27T19:40:45.126Z,99438.35
2017-12-27T19:43:14.175Z,99447.29
2017-12-27T19:45:43.484Z,99457.64
2017-12-27T19:48:12.214Z,99450.84
2017-12-27T19:50:41.625Z,99449.14
2017-12-27T19:53:10.190Z,99448.62
2017-12-27T19:55:38.788Z,99446.74
2017-12-27T19:58:07.572Z,99474.19
2017-12-27T20:00:36.258Z,99462.84
2017-12-27T20:03:04.893Z,99466.91
2017-12-27T20:05:34.409Z,99436.84
2017-12-27T20:08:03.139Z,99448.59
2017-12-27T20:10:31.825Z,99442.41
2017-12-27T20:13:01.688Z,99449.97
2017-12-27T20:15:31.138Z,99450.61
2017-12-27T20:17:59.773Z,99450.24
2017-12-27T20:20:29.332Z,99453.17
2017-12-27T20:22:57.958Z,99436.69
2017-12-27T20:25:27.417Z,99428.33
2017-12-27T20:27:56.212Z,99435.34
2017-12-27T20:30:24.858Z,99444.87
2017-12-27T20:32:53.682Z,99434.26
2017-12-27T20:35:22.747Z,99435.73
2017-12-27T20:37:51.460Z,99428.56
2017-12-27T20:40:20.108Z,99421.50
2017-12-27T20:42:48.832Z,99419.70
2017-12-27T20:45:17.468Z,99424.65
2017-12-27T20:47:46.820Z,99435.04
2017-12-27T20:50:15.713Z,99429.67
2017-12-27T20:52:44.346Z,99422.83
2017-12-27T20:55:13.797Z,99426.62
2017-12-27T20:57:42.790Z,99422.51
2017-12-27T21:00:11.428Z,99429.45
2017-12-27T21:02:40.886Z,99440.65
2017-12-27T21:05:09.566Z,99426.72
2017-12-27T21:07:38.257Z,99425.96
2017-12-27T21:10:06.894Z,99412.84
2017-12-27T21:12:36.441Z,99411.23
2017-12-27T21:15:05.028Z,99411.31
2017-12-27T21:17:33.674Z,99421.59
2017-12-27T21:20:02.499Z,99410.38
2017-12-27T21:22:31.185Z,99426.46
2017-12-27T21:24:59.827Z,99415.78
2017-12-27T21:27:28.556Z,99384.29
2017-12-27T21:29:57.187Z,99407.22
2017-12-27T21:32:26.651Z,99404.84
2017-12-27T21:34:55.437Z,99393.38
2017-12-27T21:37:24.945Z,99406.51
2017-12-27T21:39:53.580Z,99409.92
2017-12-27T21:42:23.029Z,99399.18
2017-12-27T21:44:51.669Z,99397.82
2017-12-27T21:47:26.951Z,99399.56
2017-12-27T21:49:57.930Z,99407.92
2017-12-27T21:52:27.493Z,99399.70
2017-12-27T21:54:56.190Z,99371.33
2017-12-27T21:57:24.868Z,99381.66
2017-12-27T22:02:57.130Z,99357.42
2017-12-27T22:05:25.998Z,99386.10
2017-12-27T22:07:55.353Z,99391.91
2017-12-27T22:10:23.941Z,99385.09
2017-12-27T22:12:53.100Z,99386.70
2017-12-27T22:15:21.818Z,99359.24
2017-12-27T22:17:50.461Z,99366.33
2017-12-27T22:20:24.879Z,99372.77
2017-12-27T22:22:54.326Z,99369.34
2017-12-27T22:25:22.964Z,99357.99
2017-12-27T22:27:52.828Z,99360.75
2017-12-27T22:30:21.575Z,99354.40
2017-12-27T22:32:50.304Z,99345.08
2017-12-27T22:35:18.988Z,99363.69
2017-12-27T22:37:47.628Z,99342.85
2017-12-27T22:40:16.356Z,99328.86
2017-12-27T22:42:45.151Z,99345.30
2017-12-27T22:45:13.837Z,99331.75
2017-12-27T22:47:42.622Z,99357.91
2017-12-27T22:50:11.308Z,99343.56
2017-12-27T22:52:39.994Z,99338.95
2017-12-27T22:55:08.680Z,99336.26
2017-12-27T22:57:37.364Z,99342.80
2017-12-27T23:00:06.052Z,99336.86
2017-12-27T23:02:34.679Z,99326.43
2017-12-27T23:05:04.622Z,99324.32
2017-12-27T23:07:33.338Z,99320.31
2017-12-27T23:10:01.982Z,99311.31
2017-12-27T23:12:30.974Z,99325.38
2017-12-27T23:14:59.702Z,99317.69
2017-12-27T23:17:28.280Z,99323.81
2017-12-27T23:19:57.327Z,99327.41
2017-12-27T23:22:26.780Z,99331.72
2017-12-27T23:24:55.367Z,99329.55
2017-12-27T23:27:24.053Z,99319.28
2017-12-27T23:29:52.673Z,99333.72
2017-12-27T23:32:22.137Z,99308.34
2017-12-27T23:34:51.031Z,99324.70
2017-12-27T23:37:19.718Z,99316.03
2017-12-27T23:39:48.344Z,99316.71
2017-12-27T23:42:18.112Z,99299.63
2017-12-27T23:44:46.754Z,99313.80
2017-12-27T23:47:15.481Z,99309.59
2017-12-27T23:49:44.212Z,99300.08
2017-12-27T23:52:13.577Z,99309.29
2017-12-27T23:54:42.155Z,99301.03
2017-12-27T23:57:11.117Z,99286.56
2017-12-27T23:59:39.832Z,99322.16
